sensor_id;sensor_type;location;lat;lon;timestamp;P1;durP1;ratioP1;P2;durP2;ratioP2
62696;SDS011;48761;42.680;23.312;2023-04-25T00:00:56;4.50;;;3.50;;
62696;SDS011;48761;42.680;23.312;2023-04-25T00:03:22;7.55;;;3.20;;
62696;SDS011;48761;42.680;23.312;2023-04-25T00:05:48;4.07;;;2.80;;
62696;SDS011;48761;42.680;23.312;2023-04-25T00:08:14;4.60;;;3.20;;
62696;SDS011;48761;42.680;23.312;2023-04-25T00:10:40;8.07;;;4.10;;
62696;SDS011;48761;42.680;23.312;2023-04-25T00:13:06;4.35;;;3.90;;
62696;SDS011;48761;42.680;23.312;2023-04-25T00:15:32;6.03;;;3.78;;
62696;SDS011;48761;42.680;23.312;2023-04-25T00:17:58;6.18;;;4.10;;
62696;SDS011;48761;42.680;23.312;2023-04-25T00:20:24;4.55;;;4.13;;
62696;SDS011;48761;42.680;23.312;2023-04-25T00:22:50;4.43;;;3.83;;
62696;SDS011;48761;42.680;23.312;2023-04-25T00:25:16;5.50;;;4.30;;
62696;SDS011;48761;42.680;23.312;2023-04-25T00:27:42;4.72;;;3.70;;
62696;SDS011;48761;42.680;23.312;2023-04-25T00:30:08;4.70;;;4.20;;
62696;SDS011;48761;42.680;23.312;2023-04-25T00:32:35;5.75;;;4.75;;
62696;SDS011;48761;42.680;23.312;2023-04-25T00:35:01;7.05;;;5.03;;
62696;SDS011;48761;42.680;23.312;2023-04-25T00:37:27;6.60;;;5.28;;
62696;SDS011;48761;42.680;23.312;2023-04-25T00:39:53;8.43;;;5.65;;
62696;SDS011;48761;42.680;23.312;2023-04-25T00:42:19;6.97;;;5.70;;
62696;SDS011;48761;42.680;23.312;2023-04-25T00:44:45;8.63;;;6.00;;
62696;SDS011;48761;42.680;23.312;2023-04-25T00:47:12;9.38;;;6.25;;
62696;SDS011;48761;42.680;23.312;2023-04-25T00:49:38;8.68;;;5.90;;
62696;SDS011;48761;42.680;23.312;2023-04-25T00:52:04;9.68;;;6.07;;
62696;SDS011;48761;42.680;23.312;2023-04-25T00:54:30;11.05;;;6.05;;
62696;SDS011;48761;42.680;23.312;2023-04-25T00:56:57;7.70;;;5.88;;
62696;SDS011;48761;42.680;23.312;2023-04-25T00:59:23;7.47;;;5.85;;
62696;SDS011;48761;42.680;23.312;2023-04-25T01:01:49;7.15;;;5.78;;
62696;SDS011;48761;42.680;23.312;2023-04-25T01:04:15;8.38;;;6.55;;
62696;SDS011;48761;42.680;23.312;2023-04-25T01:06:41;9.25;;;7.18;;
62696;SDS011;48761;42.680;23.312;2023-04-25T01:09:07;9.55;;;7.15;;
62696;SDS011;48761;42.680;23.312;2023-04-25T01:11:33;8.07;;;6.55;;
62696;SDS011;48761;42.680;23.312;2023-04-25T01:13:59;8.93;;;7.00;;
62696;SDS011;48761;42.680;23.312;2023-04-25T01:16:25;10.93;;;7.00;;
62696;SDS011;48761;42.680;23.312;2023-04-25T01:18:51;10.82;;;7.72;;
62696;SDS011;48761;42.680;23.312;2023-04-25T01:21:17;9.02;;;7.22;;
62696;SDS011;48761;42.680;23.312;2023-04-25T01:23:43;9.25;;;7.05;;
62696;SDS011;48761;42.680;23.312;2023-04-25T01:26:09;10.80;;;7.05;;
62696;SDS011;48761;42.680;23.312;2023-04-25T01:28:37;9.57;;;6.53;;
62696;SDS011;48761;42.680;23.312;2023-04-25T01:31:04;8.35;;;7.30;;
62696;SDS011;48761;42.680;23.312;2023-04-25T01:33:30;10.25;;;6.97;;
62696;SDS011;48761;42.680;23.312;2023-04-25T01:35:56;9.10;;;6.50;;
62696;SDS011;48761;42.680;23.312;2023-04-25T01:38:22;10.23;;;7.35;;
62696;SDS011;48761;42.680;23.312;2023-04-25T01:40:48;8.05;;;6.80;;
62696;SDS011;48761;42.680;23.312;2023-04-25T01:43:16;8.32;;;6.40;;
62696;SDS011;48761;42.680;23.312;2023-04-25T01:45:42;9.30;;;6.75;;
62696;SDS011;48761;42.680;23.312;2023-04-25T01:48:09;8.40;;;6.30;;
62696;SDS011;48761;42.680;23.312;2023-04-25T01:50:37;7.45;;;6.13;;
62696;SDS011;48761;42.680;23.312;2023-04-25T01:53:04;8.80;;;6.32;;
62696;SDS011;48761;42.680;23.312;2023-04-25T01:55:31;8.32;;;6.65;;
62696;SDS011;48761;42.680;23.312;2023-04-25T01:57:57;8.05;;;5.97;;
62696;SDS011;48761;42.680;23.312;2023-04-25T02:00:23;7.22;;;6.03;;
62696;SDS011;48761;42.680;23.312;2023-04-25T02:02:49;7.65;;;6.05;;
62696;SDS011;48761;42.680;23.312;2023-04-25T02:05:15;9.30;;;6.13;;
62696;SDS011;48761;42.680;23.312;2023-04-25T02:07:41;7.47;;;5.93;;
62696;SDS011;48761;42.680;23.312;2023-04-25T02:10:07;7.15;;;6.15;;
62696;SDS011;48761;42.680;23.312;2023-04-25T02:12:35;7.43;;;6.22;;
62696;SDS011;48761;42.680;23.312;2023-04-25T02:15:01;7.38;;;5.70;;
62696;SDS011;48761;42.680;23.312;2023-04-25T02:17:27;9.32;;;5.60;;
62696;SDS011;48761;42.680;23.312;2023-04-25T02:19:53;7.32;;;5.18;;
62696;SDS011;48761;42.680;23.312;2023-04-25T02:22:19;8.80;;;5.50;;
62696;SDS011;48761;42.680;23.312;2023-04-25T02:24:46;6.63;;;5.35;;
62696;SDS011;48761;42.680;23.312;2023-04-25T02:27:12;6.93;;;4.70;;
62696;SDS011;48761;42.680;23.312;2023-04-25T02:29:38;6.25;;;5.18;;
62696;SDS011;48761;42.680;23.312;2023-04-25T02:32:04;7.18;;;5.47;;
62696;SDS011;48761;42.680;23.312;2023-04-25T02:34:30;6.80;;;5.00;;
62696;SDS011;48761;42.680;23.312;2023-04-25T02:36:56;7.78;;;5.13;;
62696;SDS011;48761;42.680;23.312;2023-04-25T02:39:22;6.18;;;4.93;;
62696;SDS011;48761;42.680;23.312;2023-04-25T02:41:48;5.88;;;5.05;;
62696;SDS011;48761;42.680;23.312;2023-04-25T02:44:13;9.48;;;5.40;;
62696;SDS011;48761;42.680;23.312;2023-04-25T02:46:39;8.90;;;5.50;;
62696;SDS011;48761;42.680;23.312;2023-04-25T02:49:06;7.22;;;5.75;;
62696;SDS011;48761;42.680;23.312;2023-04-25T02:51:32;8.25;;;5.88;;
62696;SDS011;48761;42.680;23.312;2023-04-25T02:53:58;7.57;;;6.22;;
62696;SDS011;48761;42.680;23.312;2023-04-25T02:56:24;6.75;;;5.55;;
62696;SDS011;48761;42.680;23.312;2023-04-25T02:58:50;6.43;;;5.63;;
62696;SDS011;48761;42.680;23.312;2023-04-25T03:01:16;7.22;;;5.55;;
62696;SDS011;48761;42.680;23.312;2023-04-25T03:03:42;7.82;;;5.78;;
62696;SDS011;48761;42.680;23.312;2023-04-25T03:06:08;7.07;;;5.78;;
62696;SDS011;48761;42.680;23.312;2023-04-25T03:08:33;8.60;;;6.38;;
62696;SDS011;48761;42.680;23.312;2023-04-25T03:10:59;8.93;;;6.07;;
62696;SDS011;48761;42.680;23.312;2023-04-25T03:13:26;8.80;;;7.15;;
62696;SDS011;48761;42.680;23.312;2023-04-25T03:15:51;12.98;;;7.95;;
62696;SDS011;48761;42.680;23.312;2023-04-25T03:18:17;8.25;;;7.05;;
62696;SDS011;48761;42.680;23.312;2023-04-25T03:20:43;7.95;;;6.63;;
62696;SDS011;48761;42.680;23.312;2023-04-25T03:23:09;9.70;;;7.20;;
62696;SDS011;48761;42.680;23.312;2023-04-25T03:25:35;9.63;;;7.45;;
62696;SDS011;48761;42.680;23.312;2023-04-25T03:28:01;11.77;;;7.63;;
62696;SDS011;48761;42.680;23.312;2023-04-25T03:30:27;9.77;;;7.88;;
62696;SDS011;48761;42.680;23.312;2023-04-25T03:32:53;11.75;;;8.07;;
62696;SDS011;48761;42.680;23.312;2023-04-25T03:35:19;10.98;;;8.27;;
62696;SDS011;48761;42.680;23.312;2023-04-25T03:37:45;8.52;;;7.18;;
62696;SDS011;48761;42.680;23.312;2023-04-25T03:40:11;12.02;;;8.40;;
62696;SDS011;48761;42.680;23.312;2023-04-25T03:42:37;12.68;;;9.38;;
62696;SDS011;48761;42.680;23.312;2023-04-25T03:45:04;10.85;;;8.50;;
62696;SDS011;48761;42.680;23.312;2023-04-25T03:47:30;12.43;;;8.63;;
62696;SDS011;48761;42.680;23.312;2023-04-25T03:49:56;11.65;;;8.93;;
62696;SDS011;48761;42.680;23.312;2023-04-25T03:52:22;11.73;;;9.20;;
62696;SDS011;48761;42.680;23.312;2023-04-25T03:54:48;9.73;;;7.68;;
62696;SDS011;48761;42.680;23.312;2023-04-25T03:57:14;11.65;;;8.45;;
62696;SDS011;48761;42.680;23.312;2023-04-25T03:59:40;9.93;;;7.80;;
62696;SDS011;48761;42.680;23.312;2023-04-25T04:02:06;37.97;;;24.40;;
62696;SDS011;48761;42.680;23.312;2023-04-25T04:04:32;54.45;;;35.33;;
62696;SDS011;48761;42.680;23.312;2023-04-25T04:06:58;11.57;;;8.10;;
62696;SDS011;48761;42.680;23.312;2023-04-25T04:09:24;7.97;;;6.70;;
62696;SDS011;48761;42.680;23.312;2023-04-25T04:11:50;10.35;;;7.55;;
62696;SDS011;48761;42.680;23.312;2023-04-25T04:14:16;8.88;;;7.78;;
62696;SDS011;48761;42.680;23.312;2023-04-25T04:16:42;9.80;;;7.70;;
62696;SDS011;48761;42.680;23.312;2023-04-25T04:19:08;10.27;;;8.45;;
62696;SDS011;48761;42.680;23.312;2023-04-25T04:21:35;10.27;;;7.60;;
62696;SDS011;48761;42.680;23.312;2023-04-25T04:24:00;9.93;;;8.48;;
62696;SDS011;48761;42.680;23.312;2023-04-25T04:26:26;10.43;;;7.85;;
62696;SDS011;48761;42.680;23.312;2023-04-25T04:28:53;11.05;;;8.85;;
62696;SDS011;48761;42.680;23.312;2023-04-25T04:31:19;12.80;;;8.75;;
62696;SDS011;48761;42.680;23.312;2023-04-25T04:33:46;15.38;;;9.57;;
62696;SDS011;48761;42.680;23.312;2023-04-25T04:36:12;11.88;;;9.18;;
62696;SDS011;48761;42.680;23.312;2023-04-25T04:38:38;15.90;;;9.25;;
62696;SDS011;48761;42.680;23.312;2023-04-25T04:41:05;11.88;;;9.05;;
62696;SDS011;48761;42.680;23.312;2023-04-25T04:43:30;12.85;;;9.85;;
62696;SDS011;48761;42.680;23.312;2023-04-25T04:45:56;13.90;;;10.27;;
62696;SDS011;48761;42.680;23.312;2023-04-25T04:48:22;12.32;;;9.70;;
62696;SDS011;48761;42.680;23.312;2023-04-25T04:50:48;13.00;;;10.50;;
62696;SDS011;48761;42.680;23.312;2023-04-25T04:53:14;13.38;;;8.88;;
62696;SDS011;48761;42.680;23.312;2023-04-25T04:55:40;12.98;;;9.73;;
62696;SDS011;48761;42.680;23.312;2023-04-25T04:58:06;12.05;;;9.57;;
62696;SDS011;48761;42.680;23.312;2023-04-25T05:00:32;12.55;;;9.77;;
62696;SDS011;48761;42.680;23.312;2023-04-25T05:02:58;12.23;;;9.45;;
62696;SDS011;48761;42.680;23.312;2023-04-25T05:05:24;12.75;;;9.77;;
62696;SDS011;48761;42.680;23.312;2023-04-25T05:07:50;11.73;;;10.00;;
62696;SDS011;48761;42.680;23.312;2023-04-25T05:10:17;15.52;;;10.80;;
62696;SDS011;48761;42.680;23.312;2023-04-25T05:12:43;15.75;;;10.93;;
62696;SDS011;48761;42.680;23.312;2023-04-25T05:15:09;14.38;;;10.73;;
62696;SDS011;48761;42.680;23.312;2023-04-25T05:17:36;13.73;;;9.50;;
62696;SDS011;48761;42.680;23.312;2023-04-25T05:20:02;15.65;;;11.18;;
62696;SDS011;48761;42.680;23.312;2023-04-25T05:22:28;13.18;;;10.68;;
62696;SDS011;48761;42.680;23.312;2023-04-25T05:24:54;16.33;;;11.73;;
62696;SDS011;48761;42.680;23.312;2023-04-25T05:27:20;16.55;;;11.98;;
62696;SDS011;48761;42.680;23.312;2023-04-25T05:29:46;17.48;;;12.57;;
62696;SDS011;48761;42.680;23.312;2023-04-25T05:32:29;17.23;;;12.15;;
62696;SDS011;48761;42.680;23.312;2023-04-25T05:34:55;19.73;;;13.70;;
62696;SDS011;48761;42.680;23.312;2023-04-25T05:37:21;24.85;;;15.35;;
62696;SDS011;48761;42.680;23.312;2023-04-25T05:39:47;21.10;;;15.88;;
62696;SDS011;48761;42.680;23.312;2023-04-25T05:42:13;21.35;;;14.50;;
62696;SDS011;48761;42.680;23.312;2023-04-25T05:44:38;20.15;;;13.15;;
62696;SDS011;48761;42.680;23.312;2023-04-25T05:47:04;19.30;;;13.43;;
62696;SDS011;48761;42.680;23.312;2023-04-25T05:49:30;18.80;;;14.05;;
62696;SDS011;48761;42.680;23.312;2023-04-25T05:51:56;21.48;;;14.40;;
62696;SDS011;48761;42.680;23.312;2023-04-25T05:54:22;18.52;;;13.80;;
62696;SDS011;48761;42.680;23.312;2023-04-25T05:56:48;18.75;;;13.60;;
62696;SDS011;48761;42.680;23.312;2023-04-25T05:59:14;22.25;;;15.95;;
62696;SDS011;48761;42.680;23.312;2023-04-25T06:01:41;20.30;;;13.85;;
62696;SDS011;48761;42.680;23.312;2023-04-25T06:04:07;18.67;;;14.20;;
62696;SDS011;48761;42.680;23.312;2023-04-25T06:06:33;18.27;;;13.43;;
62696;SDS011;48761;42.680;23.312;2023-04-25T06:08:59;23.15;;;13.70;;
62696;SDS011;48761;42.680;23.312;2023-04-25T06:11:25;19.20;;;13.40;;
62696;SDS011;48761;42.680;23.312;2023-04-25T06:13:51;19.08;;;13.82;;
62696;SDS011;48761;42.680;23.312;2023-04-25T06:16:17;17.02;;;11.95;;
62696;SDS011;48761;42.680;23.312;2023-04-25T06:18:43;24.00;;;12.63;;
62696;SDS011;48761;42.680;23.312;2023-04-25T06:21:09;14.85;;;11.90;;
62696;SDS011;48761;42.680;23.312;2023-04-25T06:23:34;25.77;;;16.52;;
62696;SDS011;48761;42.680;23.312;2023-04-25T06:26:00;12.30;;;9.88;;
62696;SDS011;48761;42.680;23.312;2023-04-25T06:28:27;11.95;;;8.35;;
62696;SDS011;48761;42.680;23.312;2023-04-25T06:30:53;15.27;;;10.85;;
62696;SDS011;48761;42.680;23.312;2023-04-25T06:33:19;9.55;;;7.60;;
62696;SDS011;48761;42.680;23.312;2023-04-25T06:35:45;11.70;;;8.00;;
62696;SDS011;48761;42.680;23.312;2023-04-25T06:38:11;20.90;;;14.07;;
62696;SDS011;48761;42.680;23.312;2023-04-25T06:40:37;13.27;;;10.30;;
62696;SDS011;48761;42.680;23.312;2023-04-25T06:43:02;11.32;;;7.95;;
62696;SDS011;48761;42.680;23.312;2023-04-25T06:45:28;16.55;;;8.65;;
62696;SDS011;48761;42.680;23.312;2023-04-25T06:47:54;11.18;;;7.38;;
62696;SDS011;48761;42.680;23.312;2023-04-25T06:50:20;13.13;;;8.32;;
62696;SDS011;48761;42.680;23.312;2023-04-25T06:52:46;12.82;;;9.15;;
62696;SDS011;48761;42.680;23.312;2023-04-25T06:55:12;11.57;;;8.07;;
62696;SDS011;48761;42.680;23.312;2023-04-25T06:57:38;14.77;;;7.55;;
62696;SDS011;48761;42.680;23.312;2023-04-25T07:00:04;17.88;;;11.68;;
62696;SDS011;48761;42.680;23.312;2023-04-25T07:02:30;14.10;;;10.20;;
62696;SDS011;48761;42.680;23.312;2023-04-25T07:04:56;10.90;;;7.38;;
62696;SDS011;48761;42.680;23.312;2023-04-25T07:07:22;9.70;;;6.70;;
62696;SDS011;48761;42.680;23.312;2023-04-25T07:09:48;9.85;;;6.95;;
62696;SDS011;48761;42.680;23.312;2023-04-25T07:12:14;12.30;;;7.45;;
62696;SDS011;48761;42.680;23.312;2023-04-25T07:14:40;13.43;;;8.85;;
62696;SDS011;48761;42.680;23.312;2023-04-25T07:17:06;11.93;;;8.50;;
62696;SDS011;48761;42.680;23.312;2023-04-25T07:19:32;10.40;;;7.35;;
62696;SDS011;48761;42.680;23.312;2023-04-25T07:21:58;12.15;;;8.02;;
62696;SDS011;48761;42.680;23.312;2023-04-25T07:24:24;11.75;;;8.55;;
62696;SDS011;48761;42.680;23.312;2023-04-25T07:26:50;13.25;;;8.02;;
62696;SDS011;48761;42.680;23.312;2023-04-25T07:29:16;12.55;;;7.45;;
62696;SDS011;48761;42.680;23.312;2023-04-25T07:31:42;15.68;;;7.72;;
62696;SDS011;48761;42.680;23.312;2023-04-25T07:34:08;15.38;;;9.18;;
62696;SDS011;48761;42.680;23.312;2023-04-25T07:36:33;15.98;;;8.90;;
62696;SDS011;48761;42.680;23.312;2023-04-25T07:39:00;15.57;;;9.05;;
62696;SDS011;48761;42.680;23.312;2023-04-25T07:41:25;18.23;;;9.55;;
62696;SDS011;48761;42.680;23.312;2023-04-25T07:43:52;14.02;;;9.05;;
62696;SDS011;48761;42.680;23.312;2023-04-25T07:46:18;19.60;;;9.25;;
62696;SDS011;48761;42.680;23.312;2023-04-25T07:48:44;11.20;;;8.23;;
62696;SDS011;48761;42.680;23.312;2023-04-25T07:51:10;15.50;;;8.73;;
62696;SDS011;48761;42.680;23.312;2023-04-25T07:53:36;14.63;;;8.70;;
62696;SDS011;48761;42.680;23.312;2023-04-25T07:56:02;14.07;;;9.48;;
62696;SDS011;48761;42.680;23.312;2023-04-25T07:58:28;12.65;;;8.50;;
62696;SDS011;48761;42.680;23.312;2023-04-25T08:00:54;12.02;;;8.23;;
62696;SDS011;48761;42.680;23.312;2023-04-25T08:03:19;15.05;;;8.77;;
62696;SDS011;48761;42.680;23.312;2023-04-25T08:05:45;18.88;;;8.23;;
62696;SDS011;48761;42.680;23.312;2023-04-25T08:08:11;13.20;;;8.40;;
62696;SDS011;48761;42.680;23.312;2023-04-25T08:10:37;15.63;;;8.18;;
62696;SDS011;48761;42.680;23.312;2023-04-25T08:13:03;15.13;;;7.90;;
62696;SDS011;48761;42.680;23.312;2023-04-25T08:15:29;13.35;;;7.68;;
62696;SDS011;48761;42.680;23.312;2023-04-25T08:17:55;9.23;;;6.20;;
62696;SDS011;48761;42.680;23.312;2023-04-25T08:20:21;12.75;;;6.82;;
62696;SDS011;48761;42.680;23.312;2023-04-25T08:22:47;8.15;;;5.78;;
62696;SDS011;48761;42.680;23.312;2023-04-25T08:25:13;9.77;;;5.75;;
62696;SDS011;48761;42.680;23.312;2023-04-25T08:27:39;7.78;;;5.18;;
62696;SDS011;48761;42.680;23.312;2023-04-25T08:30:05;9.05;;;5.82;;
62696;SDS011;48761;42.680;23.312;2023-04-25T08:32:33;13.80;;;7.30;;
62696;SDS011;48761;42.680;23.312;2023-04-25T08:34:59;8.48;;;6.28;;
62696;SDS011;48761;42.680;23.312;2023-04-25T08:37:24;13.32;;;6.25;;
62696;SDS011;48761;42.680;23.312;2023-04-25T08:39:50;16.50;;;8.73;;
62696;SDS011;48761;42.680;23.312;2023-04-25T08:42:16;18.50;;;10.05;;
62696;SDS011;48761;42.680;23.312;2023-04-25T08:44:45;11.63;;;8.27;;
62696;SDS011;48761;42.680;23.312;2023-04-25T08:47:11;13.63;;;9.48;;
62696;SDS011;48761;42.680;23.312;2023-04-25T08:49:37;12.65;;;7.53;;
62696;SDS011;48761;42.680;23.312;2023-04-25T08:52:08;12.18;;;8.23;;
62696;SDS011;48761;42.680;23.312;2023-04-25T08:54:35;9.38;;;6.50;;
62696;SDS011;48761;42.680;23.312;2023-04-25T08:57:02;10.15;;;6.10;;
62696;SDS011;48761;42.680;23.312;2023-04-25T08:59:28;10.63;;;5.90;;
62696;SDS011;48761;42.680;23.312;2023-04-25T09:01:58;7.70;;;5.82;;
62696;SDS011;48761;42.680;23.312;2023-04-25T09:04:24;11.02;;;6.38;;
62696;SDS011;48761;42.680;23.312;2023-04-25T09:06:50;8.10;;;5.63;;
62696;SDS011;48761;42.680;23.312;2023-04-25T09:09:16;8.23;;;6.05;;
62696;SDS011;48761;42.680;23.312;2023-04-25T09:11:42;8.27;;;5.43;;
62696;SDS011;48761;42.680;23.312;2023-04-25T09:14:12;6.90;;;4.78;;
62696;SDS011;48761;42.680;23.312;2023-04-25T09:19:23;8.65;;;5.75;;
62696;SDS011;48761;42.680;23.312;2023-04-25T09:21:50;11.18;;;5.80;;
62696;SDS011;48761;42.680;23.312;2023-04-25T09:27:06;12.95;;;8.38;;
62696;SDS011;48761;42.680;23.312;2023-04-25T09:29:35;11.13;;;5.65;;
62696;SDS011;48761;42.680;23.312;2023-04-25T09:34:40;7.00;;;4.53;;
62696;SDS011;48761;42.680;23.312;2023-04-25T09:37:08;9.73;;;5.65;;
62696;SDS011;48761;42.680;23.312;2023-04-25T09:39:35;8.60;;;6.03;;
62696;SDS011;48761;42.680;23.312;2023-04-25T09:42:03;10.50;;;5.85;;
62696;SDS011;48761;42.680;23.312;2023-04-25T09:44:29;15.95;;;5.45;;
62696;SDS011;48761;42.680;23.312;2023-04-25T09:46:55;10.20;;;5.55;;
62696;SDS011;48761;42.680;23.312;2023-04-25T09:49:21;9.95;;;5.55;;
62696;SDS011;48761;42.680;23.312;2023-04-25T09:51:54;5.10;;;2.20;;
62696;SDS011;48761;42.680;23.312;2023-04-25T09:54:23;5.28;;;2.13;;
62696;SDS011;48761;42.680;23.312;2023-04-25T09:56:52;6.20;;;2.50;;
62696;SDS011;48761;42.680;23.312;2023-04-25T09:59:22;8.30;;;3.42;;
62696;SDS011;48761;42.680;23.312;2023-04-25T10:01:48;7.15;;;4.35;;
62696;SDS011;48761;42.680;23.312;2023-04-25T10:04:16;8.23;;;5.57;;
62696;SDS011;48761;42.680;23.312;2023-04-25T10:06:49;6.85;;;4.95;;
62696;SDS011;48761;42.680;23.312;2023-04-25T10:09:15;9.65;;;5.10;;
62696;SDS011;48761;42.680;23.312;2023-04-25T10:11:41;10.20;;;4.90;;
62696;SDS011;48761;42.680;23.312;2023-04-25T10:14:09;10.93;;;4.72;;
62696;SDS011;48761;42.680;23.312;2023-04-25T10:16:35;4.43;;;2.85;;
62696;SDS011;48761;42.680;23.312;2023-04-25T10:19:01;6.65;;;1.83;;
62696;SDS011;48761;42.680;23.312;2023-04-25T10:21:28;13.38;;;3.40;;
62696;SDS011;48761;42.680;23.312;2023-04-25T10:23:57;6.13;;;2.67;;
62696;SDS011;48761;42.680;23.312;2023-04-25T10:26:23;3.17;;;1.50;;
62696;SDS011;48761;42.680;23.312;2023-04-25T10:28:59;3.40;;;2.70;;
62696;SDS011;48761;42.680;23.312;2023-04-25T10:31:27;2.10;;;1.60;;
62696;SDS011;48761;42.680;23.312;2023-04-25T10:33:55;2.95;;;1.05;;
62696;SDS011;48761;42.680;23.312;2023-04-25T10:36:22;2.25;;;0.98;;
62696;SDS011;48761;42.680;23.312;2023-04-25T10:38:50;4.60;;;1.50;;
62696;SDS011;48761;42.680;23.312;2023-04-25T10:41:20;3.70;;;1.50;;
62696;SDS011;48761;42.680;23.312;2023-04-25T10:43:47;4.00;;;2.00;;
62696;SDS011;48761;42.680;23.312;2023-04-25T10:48:53;5.00;;;1.48;;
62696;SDS011;48761;42.680;23.312;2023-04-25T10:54:03;4.25;;;1.05;;
62696;SDS011;48761;42.680;23.312;2023-04-25T10:56:31;1.20;;;0.90;;
62696;SDS011;48761;42.680;23.312;2023-04-25T11:01:45;6.30;;;1.58;;
62696;SDS011;48761;42.680;23.312;2023-04-25T11:04:46;3.17;;;1.60;;
62696;SDS011;48761;42.680;23.312;2023-04-25T11:08:10;4.32;;;1.15;;
62696;SDS011;48761;42.680;23.312;2023-04-25T11:10:09;8.95;;;4.03;;
62696;SDS011;48761;42.680;23.312;2023-04-25T11:12:36;6.38;;;1.90;;
62696;SDS011;48761;42.680;23.312;2023-04-25T11:15:05;4.38;;;1.30;;
62696;SDS011;48761;42.680;23.312;2023-04-25T11:17:32;1.58;;;1.17;;
62696;SDS011;48761;42.680;23.312;2023-04-25T11:19:58;2.53;;;1.70;;
62696;SDS011;48761;42.680;23.312;2023-04-25T11:22:26;2.33;;;0.82;;
62696;SDS011;48761;42.680;23.312;2023-04-25T11:24:53;2.50;;;1.10;;
62696;SDS011;48761;42.680;23.312;2023-04-25T11:27:19;3.60;;;1.30;;
62696;SDS011;48761;42.680;23.312;2023-04-25T11:29:46;3.17;;;1.33;;
62696;SDS011;48761;42.680;23.312;2023-04-25T11:32:12;3.10;;;1.08;;
62696;SDS011;48761;42.680;23.312;2023-04-25T11:34:38;3.72;;;1.17;;
62696;SDS011;48761;42.680;23.312;2023-04-25T11:37:04;2.90;;;1.20;;
62696;SDS011;48761;42.680;23.312;2023-04-25T11:39:30;6.25;;;1.50;;
62696;SDS011;48761;42.680;23.312;2023-04-25T11:41:56;1.58;;;1.10;;
62696;SDS011;48761;42.680;23.312;2023-04-25T11:44:22;1.60;;;1.00;;
62696;SDS011;48761;42.680;23.312;2023-04-25T11:46:48;4.85;;;2.40;;
62696;SDS011;48761;42.680;23.312;2023-04-25T11:49:14;2.42;;;1.60;;
62696;SDS011;48761;42.680;23.312;2023-04-25T11:51:41;4.47;;;3.00;;
62696;SDS011;48761;42.680;23.312;2023-04-25T11:54:08;2.95;;;1.70;;
62696;SDS011;48761;42.680;23.312;2023-04-25T11:56:34;4.47;;;2.28;;
62696;SDS011;48761;42.680;23.312;2023-04-25T11:59:04;2.75;;;1.98;;
62696;SDS011;48761;42.680;23.312;2023-04-25T12:01:31;3.95;;;1.63;;
62696;SDS011;48761;42.680;23.312;2023-04-25T12:04:14;2.95;;;1.75;;
62696;SDS011;48761;42.680;23.312;2023-04-25T12:06:42;3.60;;;1.70;;
62696;SDS011;48761;42.680;23.312;2023-04-25T12:09:10;3.92;;;1.25;;
62696;SDS011;48761;42.680;23.312;2023-04-25T12:14:23;2.35;;;1.60;;
62696;SDS011;48761;42.680;23.312;2023-04-25T12:16:51;1.45;;;1.25;;
62696;SDS011;48761;42.680;23.312;2023-04-25T12:19:17;2.88;;;1.27;;
62696;SDS011;48761;42.680;23.312;2023-04-25T12:21:44;3.45;;;1.33;;
62696;SDS011;48761;42.680;23.312;2023-04-25T12:24:11;3.42;;;1.10;;
62696;SDS011;48761;42.680;23.312;2023-04-25T12:29:33;6.55;;;2.22;;
62696;SDS011;48761;42.680;23.312;2023-04-25T12:31:59;3.15;;;2.10;;
62696;SDS011;48761;42.680;23.312;2023-04-25T12:34:25;3.92;;;1.10;;
62696;SDS011;48761;42.680;23.312;2023-04-25T12:36:51;6.10;;;1.85;;
62696;SDS011;48761;42.680;23.312;2023-04-25T12:39:18;4.90;;;1.30;;
62696;SDS011;48761;42.680;23.312;2023-04-25T12:41:46;6.80;;;1.83;;
62696;SDS011;48761;42.680;23.312;2023-04-25T12:44:13;4.78;;;1.60;;
62696;SDS011;48761;42.680;23.312;2023-04-25T12:46:39;41.67;;;28.80;;
62696;SDS011;48761;42.680;23.312;2023-04-25T12:49:05;59.70;;;39.88;;
62696;SDS011;48761;42.680;23.312;2023-04-25T12:51:32;15.00;;;7.75;;
62696;SDS011;48761;42.680;23.312;2023-04-25T12:53:58;27.83;;;16.80;;
62696;SDS011;48761;42.680;23.312;2023-04-25T12:56:24;18.20;;;11.80;;
62696;SDS011;48761;42.680;23.312;2023-04-25T12:58:51;5.68;;;2.70;;
62696;SDS011;48761;42.680;23.312;2023-04-25T13:01:17;9.77;;;3.25;;
62696;SDS011;48761;42.680;23.312;2023-04-25T13:03:43;4.63;;;1.75;;
62696;SDS011;48761;42.680;23.312;2023-04-25T13:06:09;3.67;;;1.40;;
62696;SDS011;48761;42.680;23.312;2023-04-25T13:08:35;3.67;;;1.30;;
62696;SDS011;48761;42.680;23.312;2023-04-25T13:11:00;4.40;;;1.58;;
62696;SDS011;48761;42.680;23.312;2023-04-25T13:13:26;5.10;;;1.92;;
62696;SDS011;48761;42.680;23.312;2023-04-25T13:15:52;5.70;;;2.03;;
62696;SDS011;48761;42.680;23.312;2023-04-25T13:18:18;4.53;;;2.00;;
62696;SDS011;48761;42.680;23.312;2023-04-25T13:20:44;5.57;;;2.10;;
62696;SDS011;48761;42.680;23.312;2023-04-25T13:23:10;5.55;;;2.78;;
62696;SDS011;48761;42.680;23.312;2023-04-25T13:25:36;3.90;;;2.30;;
62696;SDS011;48761;42.680;23.312;2023-04-25T13:28:02;5.07;;;2.80;;
62696;SDS011;48761;42.680;23.312;2023-04-25T13:30:28;5.93;;;2.72;;
62696;SDS011;48761;42.680;23.312;2023-04-25T13:32:54;4.43;;;2.38;;
62696;SDS011;48761;42.680;23.312;2023-04-25T13:35:20;4.45;;;2.58;;
62696;SDS011;48761;42.680;23.312;2023-04-25T13:37:46;7.78;;;3.08;;
62696;SDS011;48761;42.680;23.312;2023-04-25T13:40:12;6.40;;;3.65;;
62696;SDS011;48761;42.680;23.312;2023-04-25T13:42:38;5.10;;;2.58;;
62696;SDS011;48761;42.680;23.312;2023-04-25T13:45:04;5.97;;;2.60;;
62696;SDS011;48761;42.680;23.312;2023-04-25T13:47:31;5.35;;;2.58;;
62696;SDS011;48761;42.680;23.312;2023-04-25T13:49:57;3.22;;;2.15;;
62696;SDS011;48761;42.680;23.312;2023-04-25T13:52:23;4.20;;;2.40;;
62696;SDS011;48761;42.680;23.312;2023-04-25T13:54:49;3.83;;;2.10;;
62696;SDS011;48761;42.680;23.312;2023-04-25T13:57:15;4.88;;;2.13;;
62696;SDS011;48761;42.680;23.312;2023-04-25T13:59:41;4.57;;;2.08;;
62696;SDS011;48761;42.680;23.312;2023-04-25T14:02:07;5.78;;;2.20;;
62696;SDS011;48761;42.680;23.312;2023-04-25T14:04:33;2.95;;;1.90;;
62696;SDS011;48761;42.680;23.312;2023-04-25T14:06:59;4.15;;;2.20;;
62696;SDS011;48761;42.680;23.312;2023-04-25T14:09:25;2.63;;;1.88;;
62696;SDS011;48761;42.680;23.312;2023-04-25T14:11:51;2.33;;;1.70;;
62696;SDS011;48761;42.680;23.312;2023-04-25T14:14:17;3.90;;;1.95;;
62696;SDS011;48761;42.680;23.312;2023-04-25T14:16:44;5.18;;;1.70;;
62696;SDS011;48761;42.680;23.312;2023-04-25T14:19:10;2.70;;;1.98;;
62696;SDS011;48761;42.680;23.312;2023-04-25T14:21:36;2.95;;;1.70;;
62696;SDS011;48761;42.680;23.312;2023-04-25T14:24:02;2.88;;;1.60;;
62696;SDS011;48761;42.680;23.312;2023-04-25T14:26:28;6.93;;;4.85;;
62696;SDS011;48761;42.680;23.312;2023-04-25T14:28:54;4.95;;;3.20;;
62696;SDS011;48761;42.680;23.312;2023-04-25T14:31:20;4.07;;;2.10;;
62696;SDS011;48761;42.680;23.312;2023-04-25T14:33:45;3.30;;;1.80;;
62696;SDS011;48761;42.680;23.312;2023-04-25T14:36:11;4.32;;;2.80;;
62696;SDS011;48761;42.680;23.312;2023-04-25T14:38:37;3.78;;;2.42;;
62696;SDS011;48761;42.680;23.312;2023-04-25T14:41:03;3.38;;;1.77;;
62696;SDS011;48761;42.680;23.312;2023-04-25T14:43:29;4.15;;;1.80;;
62696;SDS011;48761;42.680;23.312;2023-04-25T14:45:55;5.25;;;1.90;;